createdAt,value
2018-11-03T00:01:36.246Z,6.43
2018-11-03T00:04:40.809Z,6.45
2018-11-03T00:07:46.016Z,6.47
2018-11-03T00:10:50.609Z,6.44
2018-11-03T00:13:55.190Z,6.43
2018-11-03T00:16:59.693Z,6.44
2018-11-03T00:20:04.499Z,6.40
2018-11-03T00:23:09.754Z,6.41
2018-11-03T00:26:14.313Z,6.41
2018-11-03T00:29:18.904Z,6.47
2018-11-03T00:32:23.576Z,6.49
2018-11-03T00:35:28.275Z,6.47
2018-11-03T00:38:32.901Z,6.51
2018-11-03T00:41:37.490Z,6.52
2018-11-03T00:44:42.031Z,6.51
2018-11-03T00:47:46.613Z,6.53
2018-11-03T00:50:51.177Z,6.55
2018-11-03T00:53:55.748Z,6.57
2018-11-03T00:57:00.328Z,6.57
2018-11-03T01:00:05.961Z,6.58
2018-11-03T01:03:10.492Z,6.59
2018-11-03T01:06:15.105Z,6.61
2018-11-03T01:09:19.769Z,6.61
2018-11-03T01:12:24.346Z,6.66
2018-11-03T01:15:28.867Z,6.72
2018-11-03T01:18:33.468Z,6.66
2018-11-03T01:21:38.001Z,6.74
2018-11-03T01:24:42.577Z,6.66
2018-11-03T01:27:47.169Z,6.63
2018-11-03T01:30:51.708Z,6.66
2018-11-03T01:33:56.434Z,6.92
2018-11-03T01:37:01.214Z,6.82
2018-11-03T01:40:06.119Z,6.75
2018-11-03T01:43:10.716Z,6.60
2018-11-03T01:46:15.676Z,6.59
2018-11-03T01:49:20.307Z,6.59
2018-11-03T01:52:24.986Z,6.56
2018-11-03T01:55:29.584Z,6.58
2018-11-03T01:58:34.263Z,6.54
2018-11-03T02:01:38.873Z,6.55
2018-11-03T02:04:43.457Z,6.40
2018-11-03T02:07:48.032Z,6.32
2018-11-03T02:10:52.697Z,6.26
2018-11-03T02:13:57.228Z,6.18
2018-11-03T02:17:01.772Z,6.14
2018-11-03T02:20:09.247Z,6.14
2018-11-03T02:23:13.956Z,6.20
2018-11-03T02:26:18.525Z,6.33
2018-11-03T02:29:23.406Z,6.23
2018-11-03T02:32:28.021Z,6.17
2018-11-03T02:35:32.552Z,6.19
2018-11-03T02:38:37.300Z,6.12
2018-11-03T02:41:41.976Z,6.15
2018-11-03T02:44:46.629Z,6.08
2018-11-03T02:47:51.288Z,6.07
2018-11-03T02:50:55.875Z,6.01
2018-11-03T02:54:00.761Z,5.94
2018-11-03T02:57:05.637Z,5.94
2018-11-03T03:00:11.644Z,5.91
2018-11-03T03:03:16.225Z,5.84
2018-11-03T03:06:20.825Z,5.85
2018-11-03T03:09:25.530Z,5.77
2018-11-03T03:12:30.080Z,5.81
2018-11-03T03:15:34.709Z,5.86
2018-11-03T03:18:39.289Z,5.92
2018-11-03T03:21:43.904Z,5.98
2018-11-03T03:24:48.504Z,6.02
2018-11-03T03:27:53.093Z,5.96
2018-11-03T03:30:57.764Z,5.93
2018-11-03T03:34:02.551Z,6.05
2018-11-03T03:37:07.260Z,6.00
2018-11-03T03:40:12.210Z,5.91
2018-11-03T03:43:16.844Z,5.84
2018-11-03T03:46:21.499Z,5.95
2018-11-03T03:49:26.175Z,5.93
2018-11-03T03:52:30.704Z,5.86
2018-11-03T03:55:35.300Z,5.95
2018-11-03T03:58:40.140Z,5.92
2018-11-03T04:01:44.811Z,5.87
2018-11-03T04:04:49.566Z,5.88
2018-11-03T04:07:54.156Z,5.89
2018-11-03T04:10:58.745Z,5.92
2018-11-03T04:14:03.500Z,6.01
2018-11-03T04:17:08.154Z,5.96
2018-11-03T04:20:12.826Z,5.99
2018-11-03T04:23:17.470Z,5.97
2018-11-03T04:26:22.100Z,5.98
2018-11-03T04:29:26.607Z,5.96
2018-11-03T04:32:31.363Z,6.02
2018-11-03T04:35:36.031Z,5.97
2018-11-03T04:38:40.628Z,6.00
2018-11-03T04:41:45.398Z,6.00
2018-11-03T04:44:49.956Z,5.95
2018-11-03T04:47:54.509Z,5.81
2018-11-03T04:50:59.169Z,5.76
2018-11-03T04:54:03.779Z,5.65
2018-11-03T04:57:08.384Z,5.37
2018-11-03T05:00:12.993Z,5.19
2018-11-03T05:03:17.523Z,5.07
2018-11-03T05:06:22.165Z,4.92
2018-11-03T05:09:26.872Z,4.80
2018-11-03T05:12:31.704Z,4.76
2018-11-03T05:15:36.259Z,4.60
2018-11-03T05:18:41.222Z,4.46
2018-11-03T05:21:45.797Z,4.33
2018-11-03T05:24:50.396Z,4.14
2018-11-03T05:27:55.049Z,4.02
2018-11-03T05:30:59.657Z,3.87
2018-11-03T05:34:04.240Z,3.90
2018-11-03T05:37:08.878Z,3.84
2018-11-03T05:40:13.497Z,4.15
2018-11-03T05:43:18.073Z,3.94
2018-11-03T05:46:22.633Z,3.93
2018-11-03T05:49:27.325Z,3.86
2018-11-03T05:52:31.966Z,3.72
2018-11-03T05:55:36.642Z,3.64
2018-11-03T05:58:41.269Z,3.60
2018-11-03T06:01:46.007Z,3.54
2018-11-03T06:04:50.723Z,3.52
2018-11-03T06:07:55.818Z,3.59
2018-11-03T06:11:00.394Z,3.58
2018-11-03T06:14:05.073Z,3.49
2018-11-03T06:17:09.967Z,3.63
2018-11-03T06:20:14.606Z,3.49
2018-11-03T06:23:19.261Z,3.47
2018-11-03T06:26:23.801Z,3.28
2018-11-03T06:29:28.350Z,3.26
2018-11-03T06:32:33.008Z,3.37
2018-11-03T06:35:37.631Z,3.29
2018-11-03T06:38:42.194Z,3.30
2018-11-03T06:41:46.932Z,3.19
2018-11-03T06:44:51.704Z,3.27
2018-11-03T06:47:56.310Z,3.58
2018-11-03T06:51:00.974Z,3.55
2018-11-03T06:54:06.165Z,3.63
2018-11-03T06:57:10.780Z,3.61
2018-11-03T07:00:15.340Z,3.54
2018-11-03T07:03:19.841Z,3.60
2018-11-03T07:06:24.888Z,3.78
2018-11-03T07:09:29.544Z,3.97
2018-11-03T07:12:34.363Z,4.20
2018-11-03T07:15:38.786Z,4.37
2018-11-03T07:18:43.508Z,4.45
2018-11-03T07:21:48.140Z,4.64
2018-11-03T07:24:52.876Z,4.55
2018-11-03T07:27:57.413Z,4.87
2018-11-03T07:31:02.220Z,5.03
2018-11-03T07:34:07.071Z,5.28
2018-11-03T07:37:37.062Z,5.36
2018-11-03T07:40:41.794Z,5.47
2018-11-03T07:43:46.379Z,5.55
2018-11-03T07:46:50.945Z,5.81
2018-11-03T07:49:56.263Z,6.02
2018-11-03T07:53:00.804Z,6.36
2018-11-03T07:56:05.774Z,6.55
2018-11-03T07:59:10.395Z,6.61
2018-11-03T08:02:14.979Z,6.51
2018-11-03T08:05:19.541Z,6.60
2018-11-03T08:08:24.020Z,6.90
2018-11-03T08:11:28.712Z,7.11
2018-11-03T08:14:33.368Z,7.16
2018-11-03T08:17:37.903Z,7.53
2018-11-03T08:20:42.502Z,7.54
2018-11-03T08:23:47.196Z,7.24
2018-11-03T08:26:51.895Z,7.23
2018-11-03T08:29:56.594Z,6.94
2018-11-03T08:33:01.226Z,7.10
2018-11-03T08:36:06.054Z,7.28
2018-11-03T08:39:11.428Z,7.62
2018-11-03T08:42:15.914Z,7.58
2018-11-03T08:45:20.461Z,7.61
2018-11-03T08:48:25.246Z,7.72
2018-11-03T08:51:29.896Z,7.96
2018-11-03T08:54:34.456Z,7.90
2018-11-03T08:57:39.037Z,8.06
2018-11-03T09:00:43.572Z,8.13
2018-11-03T09:03:48.141Z,8.17
2018-11-03T09:06:52.756Z,8.60
2018-11-03T09:09:57.429Z,8.85
2018-11-03T09:13:02.047Z,8.86
2018-11-03T09:16:06.628Z,8.97
2018-11-03T09:19:12.877Z,9.05
2018-11-03T09:22:17.577Z,9.24
2018-11-03T09:25:22.191Z,9.57
2018-11-03T09:28:26.737Z,9.56
2018-11-03T09:31:31.299Z,9.55
2018-11-03T09:34:35.853Z,9.45
2018-11-03T09:37:40.578Z,9.88
2018-11-03T09:40:45.256Z,10.00
2018-11-03T09:43:49.813Z,10.17
2018-11-03T09:46:54.456Z,9.99
2018-11-03T09:49:59.067Z,10.19
2018-11-03T09:53:03.683Z,10.40
2018-11-03T09:56:08.552Z,10.51
2018-11-03T09:59:13.213Z,10.75
2018-11-03T10:02:18.075Z,10.61
2018-11-03T10:05:23.765Z,10.96
2018-11-03T10:08:28.527Z,11.34
2018-11-03T10:11:33.458Z,11.06
2018-11-03T10:14:38.292Z,11.45
2018-11-03T10:17:44.167Z,11.61
2018-11-03T10:20:48.942Z,11.59
2018-11-03T10:23:54.032Z,11.82
2018-11-03T10:27:04.604Z,11.76
2018-11-03T10:30:11.798Z,11.26
2018-11-03T10:33:26.679Z,11.04
2018-11-03T10:36:31.490Z,10.87
2018-11-03T10:39:36.580Z,11.16
2018-11-03T10:42:44.263Z,11.50
2018-11-03T10:46:00.572Z,11.99
2018-11-03T10:49:05.663Z,11.72
2018-11-03T10:52:11.263Z,11.71
2018-11-03T10:55:17.822Z,11.99
2018-11-03T10:58:22.748Z,12.08
2018-11-03T11:01:32.866Z,11.85
2018-11-03T11:04:44.313Z,12.11
2018-11-03T11:07:55.147Z,12.23
2018-11-03T11:12:05.207Z,11.97
2018-11-03T11:15:11.323Z,12.31
2018-11-03T11:18:17.496Z,12.06
2018-11-03T11:21:22.958Z,12.19
2018-11-03T11:24:29.945Z,12.30
2018-11-03T11:27:40.911Z,12.26
2018-11-03T11:30:48.198Z,12.29
2018-11-03T11:33:55.486Z,12.38
2018-11-03T11:37:02.784Z,12.34
2018-11-03T11:40:11.194Z,12.56
2018-11-03T11:43:44.213Z,12.51
2018-11-03T11:46:49.633Z,12.66
2018-11-03T11:49:54.937Z,12.79
2018-11-03T11:53:00.672Z,12.75
2018-11-03T11:56:06.627Z,13.02
2018-11-03T11:59:12.511Z,12.94
2018-11-03T12:02:18.770Z,12.91
2018-11-03T12:05:25.223Z,12.77
2018-11-03T12:08:31.306Z,13.02
2018-11-03T12:11:36.248Z,13.14
2018-11-03T12:14:41.132Z,13.45
2018-11-03T12:17:46.842Z,13.32
2018-11-03T12:20:52.026Z,13.40
2018-11-03T12:23:56.875Z,13.31
2018-11-03T12:27:01.709Z,13.06
2018-11-03T12:30:09.323Z,13.07
2018-11-03T12:33:14.042Z,13.30
2018-11-03T12:36:18.873Z,13.29
2018-11-03T12:39:23.571Z,13.55
2018-11-03T12:42:28.891Z,13.25
2018-11-03T12:45:33.720Z,13.50
2018-11-03T12:48:38.428Z,13.72
2018-11-03T12:51:43.556Z,13.79
2018-11-03T12:54:48.187Z,14.06
2018-11-03T12:57:53.087Z,14.04
2018-11-03T13:00:57.861Z,14.11
2018-11-03T13:04:03.021Z,13.92
2018-11-03T13:07:08.134Z,14.36
2018-11-03T13:10:13.439Z,14.16
2018-11-03T13:13:18.301Z,14.25
2018-11-03T13:16:23.361Z,14.50
2018-11-03T13:19:28.322Z,14.41
2018-11-03T13:22:33.592Z,14.53
2018-11-03T13:25:38.349Z,14.09
2018-11-03T13:28:43.275Z,13.82
2018-11-03T13:31:48.624Z,13.61
2018-11-03T13:34:53.325Z,13.74
2018-11-03T13:37:58.259Z,13.71
2018-11-03T13:41:03.203Z,13.86
2018-11-03T13:44:08.506Z,13.67
2018-11-03T13:47:13.300Z,13.72
2018-11-03T13:50:18.466Z,13.74
2018-11-03T13:53:23.260Z,13.69
2018-11-03T13:56:28.458Z,13.45
2018-11-03T13:59:33.715Z,13.32
2018-11-03T14:02:38.824Z,13.26
2018-11-03T14:05:43.627Z,13.18
2018-11-03T14:08:48.602Z,13.26
2018-11-03T14:11:53.456Z,13.32
2018-11-03T14:14:58.397Z,13.15
2018-11-03T14:18:03.123Z,13.05
2018-11-03T14:21:07.935Z,13.10
2018-11-03T14:24:12.963Z,13.05
2018-11-03T14:27:20.925Z,12.99
2018-11-03T14:30:25.992Z,12.90
2018-11-03T14:33:30.883Z,12.82
2018-11-03T14:36:35.871Z,12.67
2018-11-03T14:39:40.690Z,12.57
2018-11-03T14:42:46.093Z,12.65
2018-11-03T14:45:51.058Z,12.48
2018-11-03T14:48:55.889Z,12.27
2018-11-03T14:52:00.957Z,12.19
2018-11-03T14:55:06.832Z,12.23
2018-11-03T14:58:11.812Z,12.08
2018-11-03T15:01:16.601Z,12.07
2018-11-03T15:04:21.539Z,12.04
2018-11-03T15:07:26.525Z,11.94
2018-11-03T15:10:31.256Z,11.86
2018-11-03T15:13:36.276Z,11.81
2018-11-03T15:16:41.736Z,11.80
2018-11-03T15:19:46.797Z,11.77
2018-11-03T15:22:51.703Z,11.72
2018-11-03T15:25:56.934Z,11.68
2018-11-03T15:29:02.462Z,11.65
2018-11-03T15:32:08.726Z,11.55
2018-11-03T15:35:14.160Z,11.51
2018-11-03T15:38:19.021Z,11.72
2018-11-03T15:41:23.910Z,11.64
2018-11-03T15:44:28.828Z,11.49
2018-11-03T15:47:33.966Z,11.62
2018-11-03T15:50:44.127Z,11.44
2018-11-03T15:53:49.085Z,11.33
2018-11-03T15:56:54.220Z,11.21
2018-11-03T15:59:59.144Z,11.19
2018-11-03T16:03:04.013Z,11.08
2018-11-03T16:06:08.956Z,10.96
2018-11-03T16:09:13.885Z,10.96
2018-11-03T16:12:18.995Z,10.81
2018-11-03T16:15:23.864Z,10.87
2018-11-03T16:18:28.706Z,11.05
2018-11-03T16:21:33.608Z,10.94
2018-11-03T16:24:38.585Z,10.89
2018-11-03T16:27:43.508Z,10.90
2018-11-03T16:30:48.417Z,11.03
2018-11-03T16:33:54.050Z,10.96
2018-11-03T16:36:59.582Z,10.97
2018-11-03T16:40:04.870Z,10.98
2018-11-03T16:43:09.804Z,10.96
2018-11-03T16:46:14.765Z,10.93
2018-11-03T16:49:21.925Z,10.86
2018-11-03T16:52:26.777Z,10.86
2018-11-03T16:55:32.015Z,10.83
2018-11-03T16:58:38.336Z,10.74
2018-11-03T17:01:43.204Z,10.67
2018-11-03T17:04:48.221Z,10.57
2018-11-03T17:07:53.206Z,10.50
2018-11-03T17:10:58.346Z,10.55
2018-11-03T17:14:03.379Z,10.47
2018-11-03T17:17:08.341Z,10.43
2018-11-03T17:20:13.382Z,10.45
2018-11-03T17:23:18.226Z,10.44
2018-11-03T17:26:23.846Z,10.46
2018-11-03T17:29:28.977Z,10.35
2018-11-03T17:32:33.905Z,10.27
2018-11-03T17:35:38.687Z,10.23
2018-11-03T17:38:43.402Z,10.28
2018-11-03T17:41:48.088Z,10.15
2018-11-03T17:44:52.663Z,10.12
2018-11-03T17:47:57.471Z,10.06
2018-11-03T17:51:02.261Z,10.07
2018-11-03T17:54:07.030Z,10.01
2018-11-03T17:57:11.764Z,10.25
2018-11-03T18:00:17.551Z,10.14
2018-11-03T18:03:22.542Z,10.10
2018-11-03T18:06:27.633Z,10.07
2018-11-03T18:09:33.318Z,10.08
2018-11-03T18:12:38.341Z,10.10
2018-11-03T18:15:43.504Z,10.11
2018-11-03T18:18:48.676Z,10.07
2018-11-03T18:21:53.508Z,10.02
2018-11-03T18:24:58.427Z,10.00
2018-11-03T18:28:03.947Z,9.95
2018-11-03T18:31:10.384Z,9.95
2018-11-03T18:34:15.908Z,10.12
2018-11-03T18:37:21.214Z,10.06
2018-11-03T18:40:26.222Z,10.01
2018-11-03T18:43:31.646Z,10.05
2018-11-03T18:46:37.021Z,10.01
2018-11-03T18:49:42.013Z,9.97
2018-11-03T18:52:47.145Z,9.95
2018-11-03T18:55:52.085Z,9.96
2018-11-03T18:58:57.229Z,9.89
2018-11-03T19:02:02.488Z,9.85
2018-11-03T19:05:08.921Z,9.77
2018-11-03T19:08:14.089Z,9.73
2018-11-03T19:11:19.160Z,9.68
2018-11-03T19:14:24.402Z,9.67
2018-11-03T19:17:29.949Z,9.91
2018-11-03T19:20:35.716Z,9.94
2018-11-03T19:23:41.048Z,9.83
2018-11-03T19:26:46.457Z,9.72
2018-11-03T19:29:52.073Z,9.67
2018-11-03T19:32:57.213Z,9.71
2018-11-03T19:36:02.574Z,9.64
2018-11-03T19:39:09.996Z,9.63
2018-11-03T19:42:15.706Z,9.72
2018-11-03T19:45:20.794Z,9.88
2018-11-03T19:48:26.262Z,9.95
2018-11-03T19:51:32.304Z,9.95
2018-11-03T19:54:38.109Z,10.07
2018-11-03T19:57:43.527Z,9.94
2018-11-03T20:00:48.854Z,9.98
2018-11-03T20:03:54.194Z,10.08
2018-11-03T20:06:59.618Z,10.05
2018-11-03T20:10:04.996Z,10.14
2018-11-03T20:13:10.571Z,10.16
2018-11-03T20:16:15.983Z,10.30
2018-11-03T20:19:21.516Z,10.18
2018-11-03T20:22:31.268Z,10.22
2018-11-03T20:25:36.222Z,10.22
2018-11-03T20:28:41.342Z,10.19
2018-11-03T20:31:46.533Z,10.25
2018-11-03T20:34:52.221Z,10.23
2018-11-03T20:37:57.677Z,10.27
2018-11-03T20:41:02.942Z,10.25
2018-11-03T20:44:08.394Z,10.13
2018-11-03T20:47:13.253Z,10.12
2018-11-03T20:50:18.252Z,10.16
2018-11-03T20:53:23.628Z,10.17
2018-11-03T20:56:32.449Z,10.19
2018-11-03T20:59:37.929Z,10.10
2018-11-03T21:02:43.929Z,10.29
2018-11-03T21:05:49.501Z,10.18
2018-11-03T21:08:54.976Z,10.17
2018-11-03T21:12:00.233Z,10.30
2018-11-03T21:15:06.175Z,10.17
2018-11-03T21:18:11.831Z,10.12
2018-11-03T21:21:17.317Z,10.17
2018-11-03T21:24:22.896Z,10.08
2018-11-03T21:27:28.690Z,10.13
2018-11-03T21:30:34.008Z,10.23
2018-11-03T21:33:39.395Z,10.26
2018-11-03T21:36:44.851Z,10.20
2018-11-03T21:39:50.285Z,10.12
2018-11-03T21:42:55.348Z,10.05
2018-11-03T21:46:00.702Z,9.99
2018-11-03T21:49:06.339Z,9.96
2018-11-03T21:52:12.279Z,9.98
2018-11-03T21:55:17.536Z,9.91
2018-11-03T21:58:22.877Z,10.00
2018-11-03T22:01:28.496Z,9.97
2018-11-03T22:04:34.020Z,9.96
2018-11-03T22:07:39.423Z,10.04
2018-11-03T22:10:44.853Z,9.99
2018-11-03T22:13:50.081Z,9.97
2018-11-03T22:16:55.517Z,9.94
2018-11-03T22:20:01.034Z,9.95
2018-11-03T22:23:07.151Z,9.93
2018-11-03T22:26:13.042Z,9.87
2018-11-03T22:29:18.249Z,9.84
2018-11-03T22:32:23.148Z,9.88
2018-11-03T22:35:28.268Z,9.95
2018-11-03T22:38:33.253Z,10.17
2018-11-03T22:41:38.764Z,10.10
2018-11-03T22:44:43.714Z,9.93
2018-11-03T22:47:48.534Z,9.89
2018-11-03T22:50:53.525Z,9.85
2018-11-03T22:53:58.547Z,9.87
2018-11-03T22:57:03.618Z,9.91
2018-11-03T23:00:12.856Z,9.85
2018-11-03T23:03:18.627Z,9.94
2018-11-03T23:06:23.338Z,9.90
2018-11-03T23:09:28.978Z,9.86
2018-11-03T23:12:33.932Z,9.87
2018-11-03T23:15:38.781Z,9.88
2018-11-03T23:18:43.697Z,9.86
2018-11-03T23:21:48.621Z,9.93
2018-11-03T23:24:53.291Z,9.99
2018-11-03T23:27:58.111Z,10.11
2018-11-03T23:31:02.976Z,9.99
2018-11-03T23:34:07.805Z,9.88
2018-11-03T23:37:12.718Z,9.83
2018-11-03T23:40:17.338Z,9.71
2018-11-03T23:43:22.374Z,9.64
2018-11-03T23:46:27.334Z,9.75
2018-11-03T23:49:32.262Z,9.84
2018-11-03T23:52:37.122Z,9.78
2018-11-03T23:55:41.868Z,9.67
2018-11-03T23:58:46.644Z,9.64
